FHV2 KMDW-KLGA
Flight info
| Callsign | FHV2 |
|---|---|
| Flight time | N/A |
| Altitude | 39000 |
| Route | LEWKE ZIINE Q186 WEVEL ETG MIP4 |
| Aircraft | B738/M-SDE2E3FGHIRWXY/LB1 |
Departure
| Time | 2026-05-04 13:41 |
|---|---|
| Airport | Chicago Midway International Airport (KMDW) |
Arrival
| Time | N/A |
|---|---|
| Airport | LaGuardia Airport (KLGA) |
| Time | Latitude | Longitude | Altitude | Speed | Heading |
|---|---|---|---|---|---|
| 2026-05-04 13:23 | 41.78640 | -87.74501 | 628 ft | 0 kts | 313° |
| 2026-05-04 13:33 | 41.78637 | -87.74497 | 628 ft | 2 kts | 313° |
| 2026-05-04 13:34 | 41.78627 | -87.74482 | 635 ft | 3 kts | 305° |
| 2026-05-04 13:34 | 41.78620 | -87.74461 | 631 ft | 3 kts | 262° |
| 2026-05-04 13:34 | 41.78627 | -87.74437 | 630 ft | 3 kts | 231° |
| 2026-05-04 13:34 | 41.78634 | -87.74426 | 634 ft | 1 kts | 223° |
| 2026-05-04 13:35 | 41.78636 | -87.74424 | 632 ft | 0 kts | 223° |
| 2026-05-04 13:38 | 41.78607 | -87.74461 | 633 ft | 12 kts | 223° |
| 2026-05-04 13:38 | 41.78530 | -87.74558 | 634 ft | 16 kts | 223° |
| 2026-05-04 13:38 | 41.78537 | -87.74679 | 628 ft | 15 kts | 315° |
| 2026-05-04 13:39 | 41.78612 | -87.74774 | 628 ft | 15 kts | 330° |
| 2026-05-04 13:39 | 41.78709 | -87.74762 | 632 ft | 15 kts | 29° |
| 2026-05-04 13:39 | 41.78813 | -87.74641 | 631 ft | 25 kts | 43° |
| 2026-05-04 13:39 | 41.78944 | -87.74475 | 631 ft | 21 kts | 44° |
| 2026-05-04 13:40 | 41.79035 | -87.74359 | 635 ft | 18 kts | 43° |
| 2026-05-04 13:40 | 41.79125 | -87.74258 | 631 ft | 16 kts | 14° |
| 2026-05-04 13:40 | 41.79166 | -87.74348 | 628 ft | 15 kts | 230° |
| 2026-05-04 13:40 | 41.78917 | -87.74664 | 634 ft | 89 kts | 223° |
| 2026-05-04 13:41 | 41.78305 | -87.75439 | 740 ft | 142 kts | 222° |
| 2026-05-04 13:41 | 41.77600 | -87.76334 | 1599 ft | 139 kts | 224° |
| 2026-05-04 13:41 | 41.76953 | -87.77174 | 2552 ft | 127 kts | 227° |
| 2026-05-04 13:42 | 41.75264 | -87.78816 | 3398 ft | 190 kts | 191° |
| 2026-05-04 13:42 | 41.73859 | -87.78325 | 3614 ft | 234 kts | 152° |
| 2026-05-04 13:42 | 41.72704 | -87.76664 | 4113 ft | 260 kts | 123° |
| 2026-05-04 13:42 | 41.72253 | -87.74196 | 4557 ft | 286 kts | 95° |
| 2026-05-04 13:43 | 41.72303 | -87.71471 | 5426 ft | 294 kts | 88° |
| 2026-05-04 13:43 | 41.72485 | -87.68721 | 6451 ft | 298 kts | 86° |
| 2026-05-04 13:43 | 41.72693 | -87.65933 | 7356 ft | 304 kts | 85° |
| 2026-05-04 13:43 | 41.72898 | -87.63127 | 8297 ft | 309 kts | 85° |
| 2026-05-04 13:44 | 41.73096 | -87.60246 | 9245 ft | 314 kts | 85° |
| 2026-05-04 13:44 | 41.73287 | -87.57312 | 10128 ft | 319 kts | 85° |
| 2026-05-04 13:44 | 41.73477 | -87.54276 | 10665 ft | 339 kts | 85° |
| 2026-05-04 13:44 | 41.73675 | -87.51002 | 10926 ft | 364 kts | 85° |
| 2026-05-04 13:45 | 41.73880 | -87.47563 | 11607 ft | 374 kts | 85° |
| 2026-05-04 13:45 | 41.74084 | -87.44081 | 12494 ft | 377 kts | 85° |
| 2026-05-04 13:45 | 41.74286 | -87.40564 | 13388 ft | 381 kts | 84° |
| 2026-05-04 13:45 | 41.74490 | -87.37001 | 14155 ft | 386 kts | 85° |
| 2026-05-04 13:46 | 41.74696 | -87.33398 | 14912 ft | 390 kts | 85° |
| 2026-05-04 13:46 | 41.74901 | -87.29756 | 15697 ft | 394 kts | 85° |
| 2026-05-04 13:46 | 41.75108 | -87.26072 | 16460 ft | 399 kts | 85° |
| 2026-05-04 13:46 | 41.75317 | -87.22341 | 17192 ft | 403 kts | 85° |
| 2026-05-04 13:47 | 41.75526 | -87.18576 | 17920 ft | 408 kts | 85° |
| 2026-05-04 13:47 | 41.75738 | -87.14762 | 18575 ft | 412 kts | 85° |
| 2026-05-04 13:47 | 41.75947 | -87.10963 | 19235 ft | 415 kts | 85° |
| 2026-05-04 13:47 | 41.76158 | -87.07088 | 19905 ft | 418 kts | 85° |
| 2026-05-04 13:48 | 41.76309 | -87.03184 | 20539 ft | 422 kts | 88° |
| 2026-05-04 13:48 | 41.76376 | -86.99238 | 21170 ft | 426 kts | 89° |
| 2026-05-04 13:48 | 41.76409 | -86.95253 | 21813 ft | 429 kts | 89° |
| 2026-05-04 13:48 | 41.76436 | -86.91239 | 22433 ft | 432 kts | 89° |
| 2026-05-04 13:49 | 41.76466 | -86.87196 | 23025 ft | 436 kts | 89° |
| 2026-05-04 13:49 | 41.76502 | -86.83120 | 23559 ft | 440 kts | 89° |
| 2026-05-04 13:49 | 41.76544 | -86.79010 | 24075 ft | 443 kts | 89° |
| 2026-05-04 13:49 | 41.76589 | -86.74877 | 24603 ft | 445 kts | 89° |
| 2026-05-04 13:50 | 41.76636 | -86.70727 | 25115 ft | 447 kts | 88° |
| 2026-05-04 13:50 | 41.76681 | -86.66556 | 25605 ft | 449 kts | 88° |
| 2026-05-04 13:50 | 41.76725 | -86.62360 | 26078 ft | 452 kts | 88° |
| 2026-05-04 13:50 | 41.76766 | -86.58145 | 26545 ft | 454 kts | 88° |
| 2026-05-04 13:51 | 41.76807 | -86.53894 | 27014 ft | 457 kts | 88° |
| 2026-05-04 13:51 | 41.76846 | -86.49633 | 27469 ft | 460 kts | 88° |
| 2026-05-04 13:51 | 41.76884 | -86.45341 | 27919 ft | 462 kts | 88° |
| 2026-05-04 13:51 | 41.76919 | -86.41022 | 28337 ft | 465 kts | 88° |
| 2026-05-04 13:52 | 41.76989 | -86.32308 | 29127 ft | 471 kts | 88° |
| 2026-05-04 13:52 | 41.77025 | -86.27920 | 29505 ft | 473 kts | 88° |
| 2026-05-04 13:52 | 41.77072 | -86.23502 | 29895 ft | 475 kts | 88° |
| 2026-05-04 13:53 | 41.77124 | -86.19063 | 30211 ft | 478 kts | 87° |
| 2026-05-04 13:53 | 41.77177 | -86.14594 | 30501 ft | 480 kts | 87° |
| 2026-05-04 13:53 | 41.77227 | -86.10105 | 30786 ft | 482 kts | 87° |
| 2026-05-04 13:54 | 41.77319 | -86.01119 | 31351 ft | 486 kts | 87° |
| 2026-05-04 13:54 | 41.77361 | -85.96597 | 31733 ft | 485 kts | 87° |
| 2026-05-04 13:54 | 41.77438 | -85.87587 | 32594 ft | 482 kts | 87° |
| 2026-05-04 13:55 | 41.77474 | -85.83088 | 32963 ft | 482 kts | 86° |
| 2026-05-04 13:55 | 41.77541 | -85.74121 | 33712 ft | 481 kts | 86° |
| 2026-05-04 13:55 | 41.77572 | -85.69645 | 34044 ft | 480 kts | 86° |
| 2026-05-04 13:56 | 41.77602 | -85.65161 | 34300 ft | 481 kts | 86° |
| 2026-05-04 13:56 | 41.77629 | -85.60659 | 34534 ft | 483 kts | 87° |
| 2026-05-04 13:56 | 41.77680 | -85.51647 | 35057 ft | 484 kts | 87° |
| 2026-05-04 13:57 | 41.77703 | -85.47137 | 35321 ft | 484 kts | 87° |
| 2026-05-04 13:57 | 41.77723 | -85.42624 | 35559 ft | 485 kts | 87° |
| 2026-05-04 13:58 | 41.77776 | -85.29018 | 36308 ft | 487 kts | 88° |
| 2026-05-04 13:58 | 41.77802 | -85.19994 | 36780 ft | 488 kts | 88° |
| 2026-05-04 13:58 | 41.77815 | -85.15443 | 37019 ft | 489 kts | 88° |
| 2026-05-04 13:59 | 41.77826 | -85.10889 | 37267 ft | 489 kts | 88° |
| 2026-05-04 13:59 | 41.77837 | -85.06325 | 37495 ft | 490 kts | 88° |
| 2026-05-04 13:59 | 41.77854 | -84.97180 | 37929 ft | 491 kts | 88° |
| 2026-05-04 14:00 | 41.77858 | -84.94148 | 38076 ft | 491 kts | 88° |
| 2026-05-04 14:00 | 41.77865 | -84.84987 | 38507 ft | 492 kts | 88° |
| 2026-05-04 14:00 | 41.77866 | -84.80400 | 38687 ft | 492 kts | 88° |